sensor_id;sensor_type;location;lat;lon;timestamp;P1;P2;P0
47079;PMS5003;33067;49.296;14.470;2024-02-28T00:01:31;98;84;
47079;PMS5003;33067;49.296;14.470;2024-02-28T00:03:57;98;83;
47079;PMS5003;33067;49.296;14.470;2024-02-28T00:06:22;99;89;
47079;PMS5003;33067;49.296;14.470;2024-02-28T00:08:47;104;93;
47079;PMS5003;33067;49.296;14.470;2024-02-28T00:11:12;94;89;
47079;PMS5003;33067;49.296;14.470;2024-02-28T00:13:38;100;90;
47079;PMS5003;33067;49.296;14.470;2024-02-28T00:16:03;101;90;
47079;PMS5003;33067;49.296;14.470;2024-02-28T00:18:31;90;80;
47079;PMS5003;33067;49.296;14.470;2024-02-28T00:20:54;107;89;
47079;PMS5003;33067;49.296;14.470;2024-02-28T00:23:20;97;89;
47079;PMS5003;33067;49.296;14.470;2024-02-28T00:25:45;87;81;
47079;PMS5003;33067;49.296;14.470;2024-02-28T00:28:10;92;82;
47079;PMS5003;33067;49.296;14.470;2024-02-28T00:30:36;110;95;
47079;PMS5003;33067;49.296;14.470;2024-02-28T00:33:01;117;101;
47079;PMS5003;33067;49.296;14.470;2024-02-28T00:35:26;101;88;
47079;PMS5003;33067;49.296;14.470;2024-02-28T00:37:51;93;87;
47079;PMS5003;33067;49.296;14.470;2024-02-28T00:40:17;113;92;
47079;PMS5003;33067;49.296;14.470;2024-02-28T00:42:43;89;86;
47079;PMS5003;33067;49.296;14.470;2024-02-28T00:45:09;99;89;
47079;PMS5003;33067;49.296;14.470;2024-02-28T00:47:33;107;94;
47079;PMS5003;33067;49.296;14.470;2024-02-28T00:49:59;106;91;
47079;PMS5003;33067;49.296;14.470;2024-02-28T00:52:24;110;95;
47079;PMS5003;33067;49.296;14.470;2024-02-28T00:54:52;93;87;
47079;PMS5003;33067;49.296;14.470;2024-02-28T00:57:15;92;82;
47079;PMS5003;33067;49.296;14.470;2024-02-28T00:59:40;83;81;
47079;PMS5003;33067;49.296;14.470;2024-02-28T01:02:05;100;90;
47079;PMS5003;33067;49.296;14.470;2024-02-28T01:04:31;99;86;
47079;PMS5003;33067;49.296;14.470;2024-02-28T01:06:56;109;95;
47079;PMS5003;33067;49.296;14.470;2024-02-28T01:09:22;98;90;
47079;PMS5003;33067;49.296;14.470;2024-02-28T01:11:46;100;85;
47079;PMS5003;33067;49.296;14.470;2024-02-28T01:14:12;98;82;
47079;PMS5003;33067;49.296;14.470;2024-02-28T01:16:37;92;84;
47079;PMS5003;33067;49.296;14.470;2024-02-28T01:19:03;92;84;
47079;PMS5003;33067;49.296;14.470;2024-02-28T01:21:28;91;80;
47079;PMS5003;33067;49.296;14.470;2024-02-28T01:23:54;104;90;
47079;PMS5003;33067;49.296;14.470;2024-02-28T01:26:19;81;73;
47079;PMS5003;33067;49.296;14.470;2024-02-28T01:28:45;82;71;
47079;PMS5003;33067;49.296;14.470;2024-02-28T01:31:11;90;83;
47079;PMS5003;33067;49.296;14.470;2024-02-28T01:33:37;90;79;
47079;PMS5003;33067;49.296;14.470;2024-02-28T01:36:02;88;78;
47079;PMS5003;33067;49.296;14.470;2024-02-28T01:38:28;90;74;
47079;PMS5003;33067;49.296;14.470;2024-02-28T01:40:53;71;61;
47079;PMS5003;33067;49.296;14.470;2024-02-28T01:43:19;80;73;
47079;PMS5003;33067;49.296;14.470;2024-02-28T01:45:44;83;63;
47079;PMS5003;33067;49.296;14.470;2024-02-28T01:48:10;82;69;
47079;PMS5003;33067;49.296;14.470;2024-02-28T01:50:35;75;63;
47079;PMS5003;33067;49.296;14.470;2024-02-28T01:53:00;85;65;
47079;PMS5003;33067;49.296;14.470;2024-02-28T01:55:26;69;58;
47079;PMS5003;33067;49.296;14.470;2024-02-28T01:57:51;75;67;
47079;PMS5003;33067;49.296;14.470;2024-02-28T02:00:16;72;64;
47079;PMS5003;33067;49.296;14.470;2024-02-28T02:02:41;58;56;
47079;PMS5003;33067;49.296;14.470;2024-02-28T02:05:08;72;61;
47079;PMS5003;33067;49.296;14.470;2024-02-28T02:07:33;71;58;
47079;PMS5003;33067;49.296;14.470;2024-02-28T02:09:58;73;64;
47079;PMS5003;33067;49.296;14.470;2024-02-28T02:12:24;77;61;
47079;PMS5003;33067;49.296;14.470;2024-02-28T02:14:49;71;68;
47079;PMS5003;33067;49.296;14.470;2024-02-28T02:17:15;66;59;
47079;PMS5003;33067;49.296;14.470;2024-02-28T02:19:41;76;66;
47079;PMS5003;33067;49.296;14.470;2024-02-28T02:22:06;65;62;
47079;PMS5003;33067;49.296;14.470;2024-02-28T02:24:31;64;57;
47079;PMS5003;33067;49.296;14.470;2024-02-28T02:26:58;73;64;
47079;PMS5003;33067;49.296;14.470;2024-02-28T02:29:22;75;60;
47079;PMS5003;33067;49.296;14.470;2024-02-28T02:31:48;71;61;
47079;PMS5003;33067;49.296;14.470;2024-02-28T02:34:13;71;59;
47079;PMS5003;33067;49.296;14.470;2024-02-28T02:36:39;78;66;
47079;PMS5003;33067;49.296;14.470;2024-02-28T02:39:04;78;65;
47079;PMS5003;33067;49.296;14.470;2024-02-28T02:41:30;78;65;
47079;PMS5003;33067;49.296;14.470;2024-02-28T02:43:55;74;68;
47079;PMS5003;33067;49.296;14.470;2024-02-28T02:46:21;77;74;
47079;PMS5003;33067;49.296;14.470;2024-02-28T02:48:46;71;58;
47079;PMS5003;33067;49.296;14.470;2024-02-28T02:51:11;75;63;
47079;PMS5003;33067;49.296;14.470;2024-02-28T02:53:36;78;65;
47079;PMS5003;33067;49.296;14.470;2024-02-28T02:56:03;67;62;
47079;PMS5003;33067;49.296;14.470;2024-02-28T02:58:28;69;65;
47079;PMS5003;33067;49.296;14.470;2024-02-28T03:00:54;72;62;
47079;PMS5003;33067;49.296;14.470;2024-02-28T03:03:19;73;62;
47079;PMS5003;33067;49.296;14.470;2024-02-28T03:05:44;70;63;
47079;PMS5003;33067;49.296;14.470;2024-02-28T03:08:09;82;72;
47079;PMS5003;33067;49.296;14.470;2024-02-28T03:13:00;73;67;
47079;PMS5003;33067;49.296;14.470;2024-02-28T03:15:25;71;63;
47079;PMS5003;33067;49.296;14.470;2024-02-28T03:17:51;65;57;
47079;PMS5003;33067;49.296;14.470;2024-02-28T03:20:16;68;58;
47079;PMS5003;33067;49.296;14.470;2024-02-28T03:22:41;52;50;
47079;PMS5003;33067;49.296;14.470;2024-02-28T03:25:07;70;62;
47079;PMS5003;33067;49.296;14.470;2024-02-28T03:27:32;82;65;
47079;PMS5003;33067;49.296;14.470;2024-02-28T03:29:58;69;63;
47079;PMS5003;33067;49.296;14.470;2024-02-28T03:32:23;61;60;
47079;PMS5003;33067;49.296;14.470;2024-02-28T03:34:49;68;59;
47079;PMS5003;33067;49.296;14.470;2024-02-28T03:37:15;69;56;
47079;PMS5003;33067;49.296;14.470;2024-02-28T03:39:40;68;58;
47079;PMS5003;33067;49.296;14.470;2024-02-28T03:42:06;67;54;
47079;PMS5003;33067;49.296;14.470;2024-02-28T03:44:31;79;64;
47079;PMS5003;33067;49.296;14.470;2024-02-28T03:46:56;58;53;
47079;PMS5003;33067;49.296;14.470;2024-02-28T03:49:22;75;60;
47079;PMS5003;33067;49.296;14.470;2024-02-28T03:51:48;75;62;
47079;PMS5003;33067;49.296;14.470;2024-02-28T03:54:13;61;49;
47079;PMS5003;33067;49.296;14.470;2024-02-28T03:56:38;74;59;
47079;PMS5003;33067;49.296;14.470;2024-02-28T03:59:03;63;54;
47079;PMS5003;33067;49.296;14.470;2024-02-28T04:01:28;62;56;
47079;PMS5003;33067;49.296;14.470;2024-02-28T04:03:54;51;48;
47079;PMS5003;33067;49.296;14.470;2024-02-28T04:06:19;69;56;
47079;PMS5003;33067;49.296;14.470;2024-02-28T04:08:45;58;56;
47079;PMS5003;33067;49.296;14.470;2024-02-28T04:13:36;70;64;
47079;PMS5003;33067;49.296;14.470;2024-02-28T04:16:02;56;50;
47079;PMS5003;33067;49.296;14.470;2024-02-28T04:18:27;63;56;
47079;PMS5003;33067;49.296;14.470;2024-02-28T04:20:52;58;52;
47079;PMS5003;33067;49.296;14.470;2024-02-28T04:23:17;56;51;
47079;PMS5003;33067;49.296;14.470;2024-02-28T04:25:43;55;50;
47079;PMS5003;33067;49.296;14.470;2024-02-28T04:28:08;56;48;
47079;PMS5003;33067;49.296;14.470;2024-02-28T04:30:34;54;46;
47079;PMS5003;33067;49.296;14.470;2024-02-28T04:33:00;56;49;
47079;PMS5003;33067;49.296;14.470;2024-02-28T04:35:25;56;49;
47079;PMS5003;33067;49.296;14.470;2024-02-28T04:37:51;60;52;
47079;PMS5003;33067;49.296;14.470;2024-02-28T04:40:17;57;53;
47079;PMS5003;33067;49.296;14.470;2024-02-28T04:42:42;54;45;
47079;PMS5003;33067;49.296;14.470;2024-02-28T04:45:08;65;53;
47079;PMS5003;33067;49.296;14.470;2024-02-28T04:47:33;56;43;
47079;PMS5003;33067;49.296;14.470;2024-02-28T04:49:58;58;56;
47079;PMS5003;33067;49.296;14.470;2024-02-28T04:52:24;65;57;
47079;PMS5003;33067;49.296;14.470;2024-02-28T04:54:49;63;54;
47079;PMS5003;33067;49.296;14.470;2024-02-28T04:57:15;51;51;
47079;PMS5003;33067;49.296;14.470;2024-02-28T04:59:41;58;53;
47079;PMS5003;33067;49.296;14.470;2024-02-28T05:02:06;46;43;
47079;PMS5003;33067;49.296;14.470;2024-02-28T05:04:31;61;54;
47079;PMS5003;33067;49.296;14.470;2024-02-28T05:06:57;58;49;
47079;PMS5003;33067;49.296;14.470;2024-02-28T05:09:22;63;47;
47079;PMS5003;33067;49.296;14.470;2024-02-28T05:11:47;49;47;
47079;PMS5003;33067;49.296;14.470;2024-02-28T05:14:13;60;58;
47079;PMS5003;33067;49.296;14.470;2024-02-28T05:16:39;69;60;
47079;PMS5003;33067;49.296;14.470;2024-02-28T05:19:04;59;51;
47079;PMS5003;33067;49.296;14.470;2024-02-28T05:21:30;66;56;
47079;PMS5003;33067;49.296;14.470;2024-02-28T05:23:55;80;72;
47079;PMS5003;33067;49.296;14.470;2024-02-28T05:26:21;70;60;
47079;PMS5003;33067;49.296;14.470;2024-02-28T05:28:46;66;61;
47079;PMS5003;33067;49.296;14.470;2024-02-28T05:33:37;61;56;
47079;PMS5003;33067;49.296;14.470;2024-02-28T05:36:02;68;63;
47079;PMS5003;33067;49.296;14.470;2024-02-28T05:38:27;60;56;
47079;PMS5003;33067;49.296;14.470;2024-02-28T05:40:52;66;63;
47079;PMS5003;33067;49.296;14.470;2024-02-28T05:43:18;74;60;
47079;PMS5003;33067;49.296;14.470;2024-02-28T05:45:43;58;52;
47079;PMS5003;33067;49.296;14.470;2024-02-28T05:48:09;77;61;
47079;PMS5003;33067;49.296;14.470;2024-02-28T05:50:34;63;54;
47079;PMS5003;33067;49.296;14.470;2024-02-28T05:52:59;55;47;
47079;PMS5003;33067;49.296;14.470;2024-02-28T05:55:24;55;54;
47079;PMS5003;33067;49.296;14.470;2024-02-28T05:57:50;80;61;
47079;PMS5003;33067;49.296;14.470;2024-02-28T06:00:15;62;59;
47079;PMS5003;33067;49.296;14.470;2024-02-28T06:02:41;56;49;
47079;PMS5003;33067;49.296;14.470;2024-02-28T06:05:07;73;61;
47079;PMS5003;33067;49.296;14.470;2024-02-28T06:07:32;59;53;
47079;PMS5003;33067;49.296;14.470;2024-02-28T06:09:57;56;54;
47079;PMS5003;33067;49.296;14.470;2024-02-28T06:12:23;61;50;
47079;PMS5003;33067;49.296;14.470;2024-02-28T06:14:48;69;61;
47079;PMS5003;33067;49.296;14.470;2024-02-28T06:17:14;64;58;
47079;PMS5003;33067;49.296;14.470;2024-02-28T06:19:39;64;55;
47079;PMS5003;33067;49.296;14.470;2024-02-28T06:22:05;56;52;
47079;PMS5003;33067;49.296;14.470;2024-02-28T06:24:33;59;50;
47079;PMS5003;33067;49.296;14.470;2024-02-28T06:26:56;61;51;
47079;PMS5003;33067;49.296;14.470;2024-02-28T06:29:21;57;50;
47079;PMS5003;33067;49.296;14.470;2024-02-28T06:31:50;50;46;
47079;PMS5003;33067;49.296;14.470;2024-02-28T06:34:12;60;54;
47079;PMS5003;33067;49.296;14.470;2024-02-28T06:36:37;49;45;
47079;PMS5003;33067;49.296;14.470;2024-02-28T06:39:03;45;43;
47079;PMS5003;33067;49.296;14.470;2024-02-28T06:41:28;49;47;
47079;PMS5003;33067;49.296;14.470;2024-02-28T06:43:53;50;48;
47079;PMS5003;33067;49.296;14.470;2024-02-28T06:46:18;46;43;
47079;PMS5003;33067;49.296;14.470;2024-02-28T06:48:44;59;51;
47079;PMS5003;33067;49.296;14.470;2024-02-28T06:51:09;57;48;
47079;PMS5003;33067;49.296;14.470;2024-02-28T06:53:34;49;47;
47079;PMS5003;33067;49.296;14.470;2024-02-28T06:56:01;52;45;
47079;PMS5003;33067;49.296;14.470;2024-02-28T06:58:26;64;57;
47079;PMS5003;33067;49.296;14.470;2024-02-28T07:00:51;83;72;
47079;PMS5003;33067;49.296;14.470;2024-02-28T07:03:17;62;56;
47079;PMS5003;33067;49.296;14.470;2024-02-28T07:05:43;67;60;
47079;PMS5003;33067;49.296;14.470;2024-02-28T07:08:08;58;52;
47079;PMS5003;33067;49.296;14.470;2024-02-28T07:10:34;57;52;
47079;PMS5003;33067;49.296;14.470;2024-02-28T07:13:00;46;44;
47079;PMS5003;33067;49.296;14.470;2024-02-28T07:15:25;46;44;
47079;PMS5003;33067;49.296;14.470;2024-02-28T07:17:51;60;48;
47079;PMS5003;33067;49.296;14.470;2024-02-28T07:20:17;58;49;
47079;PMS5003;33067;49.296;14.470;2024-02-28T07:22:42;57;53;
47079;PMS5003;33067;49.296;14.470;2024-02-28T07:25:08;66;63;
47079;PMS5003;33067;49.296;14.470;2024-02-28T07:27:33;55;49;
47079;PMS5003;33067;49.296;14.470;2024-02-28T07:29:59;59;50;
47079;PMS5003;33067;49.296;14.470;2024-02-28T07:32:24;48;46;
47079;PMS5003;33067;49.296;14.470;2024-02-28T07:34:49;54;44;
47079;PMS5003;33067;49.296;14.470;2024-02-28T07:37:15;52;47;
47079;PMS5003;33067;49.296;14.470;2024-02-28T07:39:40;53;47;
47079;PMS5003;33067;49.296;14.470;2024-02-28T07:42:06;57;52;
47079;PMS5003;33067;49.296;14.470;2024-02-28T07:44:31;55;50;
47079;PMS5003;33067;49.296;14.470;2024-02-28T07:46:57;57;50;
47079;PMS5003;33067;49.296;14.470;2024-02-28T07:49:22;56;46;
47079;PMS5003;33067;49.296;14.470;2024-02-28T07:51:47;58;49;
47079;PMS5003;33067;49.296;14.470;2024-02-28T07:54:12;59;59;
47079;PMS5003;33067;49.296;14.470;2024-02-28T07:56:38;59;49;
47079;PMS5003;33067;49.296;14.470;2024-02-28T07:59:03;57;51;
47079;PMS5003;33067;49.296;14.470;2024-02-28T08:01:29;54;47;
47079;PMS5003;33067;49.296;14.470;2024-02-28T08:03:54;52;45;
47079;PMS5003;33067;49.296;14.470;2024-02-28T08:06:20;60;54;
47079;PMS5003;33067;49.296;14.470;2024-02-28T08:08:45;62;57;
47079;PMS5003;33067;49.296;14.470;2024-02-28T08:11:10;61;53;
47079;PMS5003;33067;49.296;14.470;2024-02-28T08:13:36;60;50;
47079;PMS5003;33067;49.296;14.470;2024-02-28T08:16:01;56;50;
47079;PMS5003;33067;49.296;14.470;2024-02-28T08:18:27;85;73;
47079;PMS5003;33067;49.296;14.470;2024-02-28T08:20:52;90;74;
47079;PMS5003;33067;49.296;14.470;2024-02-28T08:23:18;84;75;
47079;PMS5003;33067;49.296;14.470;2024-02-28T08:25:43;95;86;
47079;PMS5003;33067;49.296;14.470;2024-02-28T08:28:09;80;71;
47079;PMS5003;33067;49.296;14.470;2024-02-28T08:30:34;75;68;
47079;PMS5003;33067;49.296;14.470;2024-02-28T08:32:59;63;57;
47079;PMS5003;33067;49.296;14.470;2024-02-28T08:35:25;68;63;
47079;PMS5003;33067;49.296;14.470;2024-02-28T08:37:50;67;60;
47079;PMS5003;33067;49.296;14.470;2024-02-28T08:40:15;81;74;
47079;PMS5003;33067;49.296;14.470;2024-02-28T08:42:41;81;74;
47079;PMS5003;33067;49.296;14.470;2024-02-28T08:45:07;76;71;
47079;PMS5003;33067;49.296;14.470;2024-02-28T08:47:32;64;53;
47079;PMS5003;33067;49.296;14.470;2024-02-28T08:49:57;58;57;
47079;PMS5003;33067;49.296;14.470;2024-02-28T08:52:23;76;66;
47079;PMS5003;33067;49.296;14.470;2024-02-28T08:54:48;63;56;
47079;PMS5003;33067;49.296;14.470;2024-02-28T08:57:13;152;139;
47079;PMS5003;33067;49.296;14.470;2024-02-28T08:59:38;91;81;
47079;PMS5003;33067;49.296;14.470;2024-02-28T09:02:03;84;72;
47079;PMS5003;33067;49.296;14.470;2024-02-28T09:04:29;77;74;
47079;PMS5003;33067;49.296;14.470;2024-02-28T09:06:54;66;62;
47079;PMS5003;33067;49.296;14.470;2024-02-28T09:09:20;65;59;
47079;PMS5003;33067;49.296;14.470;2024-02-28T09:11:45;70;66;
47079;PMS5003;33067;49.296;14.470;2024-02-28T09:14:10;82;73;
47079;PMS5003;33067;49.296;14.470;2024-02-28T09:16:36;97;90;
47079;PMS5003;33067;49.296;14.470;2024-02-28T09:19:01;105;93;
47079;PMS5003;33067;49.296;14.470;2024-02-28T09:21:26;74;67;
47079;PMS5003;33067;49.296;14.470;2024-02-28T09:23:52;80;75;
47079;PMS5003;33067;49.296;14.470;2024-02-28T09:26:18;87;75;
47079;PMS5003;33067;49.296;14.470;2024-02-28T09:28:43;74;66;
47079;PMS5003;33067;49.296;14.470;2024-02-28T09:31:08;81;74;
47079;PMS5003;33067;49.296;14.470;2024-02-28T09:33:35;66;53;
47079;PMS5003;33067;49.296;14.470;2024-02-28T09:36:01;63;52;
47079;PMS5003;33067;49.296;14.470;2024-02-28T09:38:25;65;57;
47079;PMS5003;33067;49.296;14.470;2024-02-28T09:40:50;63;59;
47079;PMS5003;33067;49.296;14.470;2024-02-28T09:43:29;63;54;
47079;PMS5003;33067;49.296;14.470;2024-02-28T09:45:40;63;50;
47079;PMS5003;33067;49.296;14.470;2024-02-28T09:48:07;57;50;
47079;PMS5003;33067;49.296;14.470;2024-02-28T09:50:32;89;74;
47079;PMS5003;33067;49.296;14.470;2024-02-28T09:52:58;105;92;
47079;PMS5003;33067;49.296;14.470;2024-02-28T09:55:24;99;95;
47079;PMS5003;33067;49.296;14.470;2024-02-28T09:57:49;86;76;
47079;PMS5003;33067;49.296;14.470;2024-02-28T10:00:14;83;71;
47079;PMS5003;33067;49.296;14.470;2024-02-28T10:02:39;88;74;
47079;PMS5003;33067;49.296;14.470;2024-02-28T10:05:05;88;77;
47079;PMS5003;33067;49.296;14.470;2024-02-28T10:07:29;81;77;
47079;PMS5003;33067;49.296;14.470;2024-02-28T10:09:55;91;85;
47079;PMS5003;33067;49.296;14.470;2024-02-28T10:12:20;90;78;
47079;PMS5003;33067;49.296;14.470;2024-02-28T10:14:49;78;76;
47079;PMS5003;33067;49.296;14.470;2024-02-28T10:17:11;72;63;
47079;PMS5003;33067;49.296;14.470;2024-02-28T10:19:36;85;81;
47079;PMS5003;33067;49.296;14.470;2024-02-28T10:22:02;111;106;
47079;PMS5003;33067;49.296;14.470;2024-02-28T10:24:28;89;85;
47079;PMS5003;33067;49.296;14.470;2024-02-28T10:26:53;97;89;
47079;PMS5003;33067;49.296;14.470;2024-02-28T10:29:19;88;79;
47079;PMS5003;33067;49.296;14.470;2024-02-28T10:31:44;89;82;
47079;PMS5003;33067;49.296;14.470;2024-02-28T10:34:10;97;90;
47079;PMS5003;33067;49.296;14.470;2024-02-28T10:36:35;89;85;
47079;PMS5003;33067;49.296;14.470;2024-02-28T10:39:00;94;89;
47079;PMS5003;33067;49.296;14.470;2024-02-28T10:41:25;97;92;
47079;PMS5003;33067;49.296;14.470;2024-02-28T10:43:51;109;90;
47079;PMS5003;33067;49.296;14.470;2024-02-28T10:46:17;99;87;
47079;PMS5003;33067;49.296;14.470;2024-02-28T10:48:43;104;95;
47079;PMS5003;33067;49.296;14.470;2024-02-28T10:51:08;106;93;
47079;PMS5003;33067;49.296;14.470;2024-02-28T10:53:36;88;81;
47079;PMS5003;33067;49.296;14.470;2024-02-28T10:56:01;75;70;
47079;PMS5003;33067;49.296;14.470;2024-02-28T10:58:24;92;81;
47079;PMS5003;33067;49.296;14.470;2024-02-28T11:00:50;79;72;
47079;PMS5003;33067;49.296;14.470;2024-02-28T11:03:16;93;85;
47079;PMS5003;33067;49.296;14.470;2024-02-28T11:05:42;96;80;
47079;PMS5003;33067;49.296;14.470;2024-02-28T11:08:08;93;85;
47079;PMS5003;33067;49.296;14.470;2024-02-28T11:10:32;85;78;
47079;PMS5003;33067;49.296;14.470;2024-02-28T11:12:58;146;133;
47079;PMS5003;33067;49.296;14.470;2024-02-28T11:15:24;108;93;
47079;PMS5003;33067;49.296;14.470;2024-02-28T11:17:49;103;90;
47079;PMS5003;33067;49.296;14.470;2024-02-28T11:20:14;103;93;
47079;PMS5003;33067;49.296;14.470;2024-02-28T11:22:40;100;86;
47079;PMS5003;33067;49.296;14.470;2024-02-28T11:25:05;103;92;
47079;PMS5003;33067;49.296;14.470;2024-02-28T11:27:31;92;81;
47079;PMS5003;33067;49.296;14.470;2024-02-28T11:29:56;109;96;
47079;PMS5003;33067;49.296;14.470;2024-02-28T11:32:24;92;75;
47079;PMS5003;33067;49.296;14.470;2024-02-28T11:34:47;109;97;
47079;PMS5003;33067;49.296;14.470;2024-02-28T11:37:13;77;70;
47079;PMS5003;33067;49.296;14.470;2024-02-28T11:39:38;83;75;
47079;PMS5003;33067;49.296;14.470;2024-02-28T11:42:10;63;58;
47079;PMS5003;33067;49.296;14.470;2024-02-28T11:44:29;93;89;
47079;PMS5003;33067;49.296;14.470;2024-02-28T11:46:55;108;97;
47079;PMS5003;33067;49.296;14.470;2024-02-28T11:49:20;100;82;
47079;PMS5003;33067;49.296;14.470;2024-02-28T11:51:46;90;81;
47079;PMS5003;33067;49.296;14.470;2024-02-28T11:54:10;103;89;
47079;PMS5003;33067;49.296;14.470;2024-02-28T11:56:36;116;100;
47079;PMS5003;33067;49.296;14.470;2024-02-28T11:59:01;100;83;
47079;PMS5003;33067;49.296;14.470;2024-02-28T12:01:33;94;83;
47079;PMS5003;33067;49.296;14.470;2024-02-28T12:03:52;90;86;
47079;PMS5003;33067;49.296;14.470;2024-02-28T12:06:17;108;98;
47079;PMS5003;33067;49.296;14.470;2024-02-28T12:08:42;88;76;
47079;PMS5003;33067;49.296;14.470;2024-02-28T12:11:08;98;88;
47079;PMS5003;33067;49.296;14.470;2024-02-28T12:13:33;98;89;
47079;PMS5003;33067;49.296;14.470;2024-02-28T12:15:58;100;89;
47079;PMS5003;33067;49.296;14.470;2024-02-28T12:18:25;94;86;
47079;PMS5003;33067;49.296;14.470;2024-02-28T12:20:49;98;95;
47079;PMS5003;33067;49.296;14.470;2024-02-28T12:23:14;119;109;
47079;PMS5003;33067;49.296;14.470;2024-02-28T12:25:40;108;100;
47079;PMS5003;33067;49.296;14.470;2024-02-28T12:28:05;112;102;
47079;PMS5003;33067;49.296;14.470;2024-02-28T12:30:31;111;105;
47079;PMS5003;33067;49.296;14.470;2024-02-28T12:32:56;111;105;
47079;PMS5003;33067;49.296;14.470;2024-02-28T12:35:22;125;116;
47079;PMS5003;33067;49.296;14.470;2024-02-28T12:37:47;112;100;
47079;PMS5003;33067;49.296;14.470;2024-02-28T12:40:13;99;96;
47079;PMS5003;33067;49.296;14.470;2024-02-28T12:42:39;110;101;
47079;PMS5003;33067;49.296;14.470;2024-02-28T12:45:05;102;93;
47079;PMS5003;33067;49.296;14.470;2024-02-28T12:47:30;96;95;
47079;PMS5003;33067;49.296;14.470;2024-02-28T12:49:56;112;104;
47079;PMS5003;33067;49.296;14.470;2024-02-28T12:52:21;88;86;
47079;PMS5003;33067;49.296;14.470;2024-02-28T12:54:46;70;65;
47079;PMS5003;33067;49.296;14.470;2024-02-28T12:57:11;93;88;
47079;PMS5003;33067;49.296;14.470;2024-02-28T12:59:37;102;94;
47079;PMS5003;33067;49.296;14.470;2024-02-28T13:02:03;97;85;
47079;PMS5003;33067;49.296;14.470;2024-02-28T13:04:28;79;74;
47079;PMS5003;33067;49.296;14.470;2024-02-28T13:06:54;63;61;
47079;PMS5003;33067;49.296;14.470;2024-02-28T13:09:20;95;92;
47079;PMS5003;33067;49.296;14.470;2024-02-28T13:11:45;77;74;
47079;PMS5003;33067;49.296;14.470;2024-02-28T13:14:11;81;75;
47079;PMS5003;33067;49.296;14.470;2024-02-28T13:16:36;72;68;
47079;PMS5003;33067;49.296;14.470;2024-02-28T13:19:02;74;66;
47079;PMS5003;33067;49.296;14.470;2024-02-28T13:21:28;68;63;
47079;PMS5003;33067;49.296;14.470;2024-02-28T13:23:53;78;67;
47079;PMS5003;33067;49.296;14.470;2024-02-28T13:26:19;70;70;
47079;PMS5003;33067;49.296;14.470;2024-02-28T13:28:44;55;52;
47079;PMS5003;33067;49.296;14.470;2024-02-28T13:31:10;66;64;
47079;PMS5003;33067;49.296;14.470;2024-02-28T13:33:36;70;65;
47079;PMS5003;33067;49.296;14.470;2024-02-28T13:36:01;74;69;
47079;PMS5003;33067;49.296;14.470;2024-02-28T13:38:27;78;72;
47079;PMS5003;33067;49.296;14.470;2024-02-28T13:40:52;73;68;
47079;PMS5003;33067;49.296;14.470;2024-02-28T13:43:18;70;68;
47079;PMS5003;33067;49.296;14.470;2024-02-28T13:45:46;83;72;
47079;PMS5003;33067;49.296;14.470;2024-02-28T13:48:15;78;76;
47079;PMS5003;33067;49.296;14.470;2024-02-28T13:50:35;63;61;
47079;PMS5003;33067;49.296;14.470;2024-02-28T13:53:01;79;72;
47079;PMS5003;33067;49.296;14.470;2024-02-28T13:55:26;86;80;
47079;PMS5003;33067;49.296;14.470;2024-02-28T13:57:51;74;67;
47079;PMS5003;33067;49.296;14.470;2024-02-28T14:00:18;81;72;
47079;PMS5003;33067;49.296;14.470;2024-02-28T14:02:42;94;88;
47079;PMS5003;33067;49.296;14.470;2024-02-28T14:05:08;44;40;
47079;PMS5003;33067;49.296;14.470;2024-02-28T14:07:34;49;45;
47079;PMS5003;33067;49.296;14.470;2024-02-28T14:10:00;50;45;
47079;PMS5003;33067;49.296;14.470;2024-02-28T14:12:26;50;43;
47079;PMS5003;33067;49.296;14.470;2024-02-28T14:14:51;104;95;
47079;PMS5003;33067;49.296;14.470;2024-02-28T14:17:16;75;71;
47079;PMS5003;33067;49.296;14.470;2024-02-28T14:19:42;78;73;
47079;PMS5003;33067;49.296;14.470;2024-02-28T14:22:07;48;45;
47079;PMS5003;33067;49.296;14.470;2024-02-28T14:24:33;51;51;
47079;PMS5003;33067;49.296;14.470;2024-02-28T14:26:58;61;51;
47079;PMS5003;33067;49.296;14.470;2024-02-28T14:29:23;58;57;
47079;PMS5003;33067;49.296;14.470;2024-02-28T14:31:49;62;52;
47079;PMS5003;33067;49.296;14.470;2024-02-28T14:34:14;55;51;
47079;PMS5003;33067;49.296;14.470;2024-02-28T14:36:40;70;61;
47079;PMS5003;33067;49.296;14.470;2024-02-28T14:39:06;63;60;
47079;PMS5003;33067;49.296;14.470;2024-02-28T14:41:31;61;57;
47079;PMS5003;33067;49.296;14.470;2024-02-28T14:43:57;62;54;
47079;PMS5003;33067;49.296;14.470;2024-02-28T14:46:23;73;58;
47079;PMS5003;33067;49.296;14.470;2024-02-28T14:48:48;52;47;
47079;PMS5003;33067;49.296;14.470;2024-02-28T14:51:13;62;59;
47079;PMS5003;33067;49.296;14.470;2024-02-28T14:53:39;71;63;
47079;PMS5003;33067;49.296;14.470;2024-02-28T14:56:04;57;54;
47079;PMS5003;33067;49.296;14.470;2024-02-28T14:58:30;60;56;
47079;PMS5003;33067;49.296;14.470;2024-02-28T15:00:55;69;61;
47079;PMS5003;33067;49.296;14.470;2024-02-28T15:03:21;65;58;
47079;PMS5003;33067;49.296;14.470;2024-02-28T15:05:46;74;62;
47079;PMS5003;33067;49.296;14.470;2024-02-28T15:08:11;69;62;
47079;PMS5003;33067;49.296;14.470;2024-02-28T15:10:37;57;55;
47079;PMS5003;33067;49.296;14.470;2024-02-28T15:13:02;68;59;
47079;PMS5003;33067;49.296;14.470;2024-02-28T15:15:28;66;61;
47079;PMS5003;33067;49.296;14.470;2024-02-28T15:17:53;57;53;
47079;PMS5003;33067;49.296;14.470;2024-02-28T15:20:20;66;57;
47079;PMS5003;33067;49.296;14.470;2024-02-28T15:22:44;62;54;
47079;PMS5003;33067;49.296;14.470;2024-02-28T15:25:09;66;54;
47079;PMS5003;33067;49.296;14.470;2024-02-28T15:27:35;68;61;
47079;PMS5003;33067;49.296;14.470;2024-02-28T15:30:00;70;65;
47079;PMS5003;33067;49.296;14.470;2024-02-28T15:32:26;64;63;
47079;PMS5003;33067;49.296;14.470;2024-02-28T15:34:51;68;59;
47079;PMS5003;33067;49.296;14.470;2024-02-28T15:37:16;66;58;
47079;PMS5003;33067;49.296;14.470;2024-02-28T15:39:42;67;58;
47079;PMS5003;33067;49.296;14.470;2024-02-28T15:42:07;61;52;
47079;PMS5003;33067;49.296;14.470;2024-02-28T15:44:33;69;63;
47079;PMS5003;33067;49.296;14.470;2024-02-28T15:46:58;65;59;
47079;PMS5003;33067;49.296;14.470;2024-02-28T15:49:24;63;56;
47079;PMS5003;33067;49.296;14.470;2024-02-28T15:51:50;65;57;
47079;PMS5003;33067;49.296;14.470;2024-02-28T15:54:15;70;60;